Time;durP1;ratioP1;P1;durP2;ratioP2;P2;SDS_P1;SDS_P2;PMS_P1;PMS_P2;Temp;Humidity;BMP_temperature;BMP_pressure;BME280_temperature;BME280_humidity;BME280_pressure;Samples;Min_cycle;Max_cycle;Signal;HPM_P1;HPM_P2
2022/04/26 03:36:11;;;;;;;3.43;3.00;;;17.20;57.60;;;;;;5074413;28;20192;-92
2022/04/26 03:38:41;;;;;;;2.80;2.60;;;17.20;57.60;;;;;;5075707;28;20169;-92
2022/04/26 03:41:07;;;;;;;3.10;2.77;;;17.20;57.60;;;;;;5075477;28;20172;-92
2022/04/26 03:43:33;;;;;;;2.80;2.60;;;17.20;57.60;;;;;;5058068;28;20272;-92
2022/04/26 03:45:59;;;;;;;3.27;2.97;;;17.10;57.60;;;;;;5075412;28;20177;-91
2022/04/26 03:48:25;;;;;;;3.00;2.70;;;17.10;57.60;;;;;;5057449;28;20169;-91
2022/04/26 03:50:51;;;;;;;3.30;3.00;;;17.10;57.50;;;;;;5058223;28;20172;-92
2022/04/26 03:53:17;;;;;;;3.10;2.80;;;17.10;57.60;;;;;;5058264;28;20169;-91
2022/04/26 03:55:42;;;;;;;3.20;2.87;;;17.10;57.70;;;;;;5056851;28;20207;-92
2022/04/26 03:58:08;;;;;;;3.43;3.13;;;17.10;57.70;;;;;;5057506;28;20182;-91
2022/04/26 04:00:34;;;;;;;3.30;3.00;;;17.10;57.70;;;;;;5074591;28;20504;-92
2022/04/26 04:03:00;;;;;;;3.50;3.20;;;17.10;57.70;;;;;;5074378;28;20206;-93
2022/04/26 04:05:26;;;;;;;3.50;3.20;;;17.10;57.80;;;;;;5056910;28;20173;-93
2022/04/26 04:07:52;;;;;;;3.20;2.90;;;17.10;57.80;;;;;;5056994;28;20171;-92
2022/04/26 04:10:18;;;;;;;3.83;3.43;;;17.10;57.80;;;;;;5056842;28;20391;-93
2022/04/26 04:12:43;;;;;;;3.70;3.40;;;17.10;57.80;;;;;;5057065;28;20189;-93
2022/04/26 04:15:09;;;;;;;3.87;3.53;;;17.10;57.90;;;;;;5056665;28;20510;-93
2022/04/26 04:17:35;;;;;;;3.83;3.53;;;17.00;57.90;;;;;;5057258;28;20306;-93
2022/04/26 04:20:02;;;;;;;3.33;3.03;;;17.00;57.90;;;;;;5057471;28;20443;-92
2022/04/26 04:22:27;;;;;;;3.50;3.20;;;17.10;57.80;;;;;;5056724;28;20211;-93
2022/04/26 04:24:53;;;;;;;3.70;3.40;;;17.10;57.90;;;;;;5057829;28;20176;-93
2022/04/26 04:27:19;;;;;;;4.30;3.40;;;17.00;57.80;;;;;;5057096;28;20618;-93
2022/04/26 04:29:45;;;;;;;4.33;3.50;;;17.00;57.80;;;;;;5074111;28;20521;-94
2022/04/26 04:32:11;;;;;;;3.70;3.40;;;17.00;57.90;;;;;;5056781;28;20253;-93
2022/04/26 04:34:36;;;;;;;4.00;3.60;;;17.00;57.90;;;;;;5055860;28;20172;-93
2022/04/26 04:37:03;;;;;;;4.17;3.77;;;17.00;57.90;;;;;;5057013;28;20183;-93
2022/04/26 04:39:28;;;;;;;4.47;3.70;;;17.00;58.00;;;;;;5055608;28;20276;-93
2022/04/26 04:41:54;;;;;;;4.70;4.20;;;17.00;57.90;;;;;;5056560;28;20319;-93
2022/04/26 04:44:21;;;;;;;4.30;3.90;;;17.00;58.00;;;;;;5055746;28;20179;-92
2022/04/26 04:46:49;;;;;;;4.37;3.97;;;17.00;58.00;;;;;;5057011;28;20174;-93
2022/04/26 04:49:15;;;;;;;5.07;3.90;;;17.00;58.00;;;;;;5055798;28;20234;-93
2022/04/26 04:51:40;;;;;;;4.77;4.30;;;17.00;58.00;;;;;;5055467;28;20172;-93
2022/04/26 04:54:07;;;;;;;4.00;3.70;;;17.00;58.00;;;;;;5053506;28;20539;-93
2022/04/26 04:56:33;;;;;;;4.17;3.80;;;17.00;58.00;;;;;;5055529;28;20180;-93
2022/04/26 04:58:59;;;;;;;4.10;3.70;;;17.00;58.00;;;;;;5055604;28;20433;-93
2022/04/26 05:01:24;;;;;;;4.40;3.77;;;17.00;58.00;;;;;;5055252;28;20573;-93
2022/04/26 05:03:51;;;;;;;4.27;3.87;;;17.00;58.10;;;;;;5054544;28;20493;-93
2022/04/26 05:06:18;;;;;;;4.53;4.10;;;17.00;58.00;;;;;;5054098;28;20182;-93
2022/04/26 05:08:45;;;;;;;4.10;3.57;;;17.00;58.10;;;;;;5054775;28;20175;-92
2022/04/26 05:11:11;;;;;;;4.77;3.77;;;17.00;58.10;;;;;;5054572;28;20462;-93
2022/04/26 05:13:37;;;;;;;4.93;4.00;;;17.00;58.10;;;;;;5053006;28;20174;-93
2022/04/26 05:16:03;;;;;;;4.23;3.63;;;16.90;58.20;;;;;;5052972;28;20168;-93
2022/04/26 05:18:29;;;;;;;4.17;3.77;;;17.00;58.30;;;;;;5053199;28;20177;-93
2022/04/26 05:20:55;;;;;;;4.23;3.83;;;17.00;58.30;;;;;;5052509;28;20170;-92
2022/04/26 05:26:06;;;;;;;5.73;3.83;;;16.90;59.30;;;;;;5069712;28;20166;-93
2022/04/26 05:28:31;;;;;;;7.20;4.20;;;17.00;59.50;;;;;;5053189;28;20170;-93
2022/04/26 05:30:57;;;;;;;5.80;3.90;;;17.00;59.70;;;;;;5053749;28;20395;-92
2022/04/26 05:33:25;;;;;;;4.40;3.60;;;17.00;59.60;;;;;;5055080;28;20170;-93
2022/04/26 05:35:51;;;;;;;5.90;3.50;;;17.00;59.50;;;;;;5054672;28;20241;-93
2022/04/26 05:38:17;;;;;;;4.00;3.47;;;17.00;59.40;;;;;;5054950;28;20465;-93
2022/04/26 05:40:43;;;;;;;6.40;3.67;;;17.00;59.30;;;;;;5053504;28;20168;-93
2022/04/26 05:43:09;;;;;;;3.90;3.50;;;17.00;59.40;;;;;;5070653;28;20653;-91
2022/04/26 05:45:35;;;;;;;5.10;3.70;;;17.00;59.30;;;;;;5053176;28;20181;-91
2022/04/26 05:48:01;;;;;;;3.40;3.10;;;16.90;59.30;;;;;;5054831;28;20234;-91
2022/04/26 05:50:27;;;;;;;3.17;2.87;;;17.00;59.20;;;;;;5054738;28;20166;-91
2022/04/26 05:52:52;;;;;;;3.63;3.33;;;16.90;59.20;;;;;;5054164;28;20183;-91
2022/04/26 05:55:18;;;;;;;3.80;3.37;;;16.90;59.20;;;;;;5054779;28;20181;-91
2022/04/26 05:57:44;;;;;;;3.50;3.20;;;17.00;59.30;;;;;;5054855;28;20618;-92
2022/04/26 06:00:13;;;;;;;3.23;2.93;;;17.00;59.40;;;;;;5054004;28;20370;-92
2022/04/26 06:02:42;;;;;;;3.30;3.00;;;17.00;59.30;;;;;;5053884;28;20200;-92
2022/04/26 06:05:09;;;;;;;3.80;3.37;;;17.00;59.50;;;;;;5072373;28;20163;-91
2022/04/26 06:07:34;;;;;;;4.60;2.97;;;17.00;59.40;;;;;;5054979;28;20177;-91
2022/04/26 06:10:02;;;;;;;3.70;3.40;;;17.00;59.50;;;;;;5054602;28;20241;-91
2022/04/26 06:12:28;;;;;;;3.30;3.00;;;17.00;59.50;;;;;;5055553;28;20318;-91
2022/04/26 06:14:58;;;;;;;3.53;3.10;;;16.90;59.50;;;;;;5056558;28;20507;-91
2022/04/26 06:17:24;;;;;;;4.97;3.30;;;17.00;59.60;;;;;;5053233;28;20173;-92
2022/04/26 06:19:49;;;;;;;3.23;2.93;;;17.00;59.60;;;;;;5053551;28;20173;-92
2022/04/26 06:22:16;;;;;;;3.57;2.80;;;17.00;59.60;;;;;;5053727;28;20564;-91
2022/04/26 06:24:42;;;;;;;3.57;3.17;;;17.00;59.70;;;;;;5054051;28;20465;-91
2022/04/26 06:27:08;;;;;;;3.37;3.00;;;17.00;59.70;;;;;;5054294;28;20167;-92
2022/04/26 06:29:33;;;;;;;3.10;2.73;;;17.00;59.80;;;;;;5053376;28;20412;-91
2022/04/26 06:31:59;;;;;;;3.43;2.70;;;17.00;59.80;;;;;;5054619;28;20381;-91
2022/04/26 06:34:26;;;;;;;6.80;2.90;;;17.00;59.80;;;;;;5054404;28;20262;-92
2022/04/26 06:36:51;;;;;;;3.37;2.90;;;17.00;59.90;;;;;;5052805;28;20339;-92
2022/04/26 06:39:17;;;;;;;3.30;3.00;;;17.00;59.90;;;;;;5070990;28;20475;-92
2022/04/26 06:41:43;;;;;;;4.10;2.87;;;17.00;60.00;;;;;;5055181;28;20217;-92
2022/04/26 06:44:09;;;;;;;3.37;3.07;;;17.00;59.90;;;;;;5054211;28;20431;-92
2022/04/26 06:46:36;;;;;;;4.83;3.20;;;17.00;60.10;;;;;;5053969;28;20170;-92
2022/04/26 06:49:03;;;;;;;3.53;2.70;;;17.00;59.90;;;;;;5054788;28;20170;-91
2022/04/26 06:51:34;;;;;;;4.60;2.70;;;17.00;59.90;;;;;;5054101;28;20559;-92
2022/04/26 06:53:59;;;;;;;3.07;2.77;;;17.00;60.10;;;;;;5052197;28;20169;-93
2022/04/26 06:56:25;;;;;;;3.70;2.63;;;17.00;60.20;;;;;;5052203;28;20581;-93
2022/04/26 06:58:51;;;;;;;3.10;2.80;;;17.00;60.20;;;;;;5053696;28;20178;-93
2022/04/26 07:01:16;;;;;;;3.60;2.67;;;17.00;60.20;;;;;;5053933;28;20181;-93
2022/04/26 07:03:42;;;;;;;2.93;2.63;;;17.00;60.10;;;;;;5054013;28;20268;-93
2022/04/26 07:06:08;;;;;;;2.90;2.60;;;17.00;60.20;;;;;;5052947;28;20466;-93
2022/04/26 07:08:34;;;;;;;3.10;2.70;;;17.00;60.00;;;;;;5053970;28;20607;-93
2022/04/26 07:11:00;;;;;;;3.43;2.50;;;17.00;60.10;;;;;;5052835;28;20406;-93
2022/04/26 07:13:25;;;;;;;3.63;2.83;;;17.10;60.00;;;;;;5052662;28;20176;-93
2022/04/26 07:15:51;;;;;;;3.43;2.50;;;17.10;59.80;;;;;;5052196;28;20332;-93
2022/04/26 07:18:17;;;;;;;4.50;2.50;;;17.10;59.80;;;;;;5052746;28;20217;-93
2022/04/26 07:21:01;;;;;;;4.07;2.47;;;17.10;59.80;;;;;;5056346;28;20463;-93
2022/04/26 07:23:27;;;;;;;3.13;2.63;;;17.10;59.70;;;;;;5051844;28;20223;-93
2022/04/26 07:25:54;;;;;;;4.17;2.57;;;17.10;59.70;;;;;;5051932;28;20230;-93
2022/04/26 07:28:20;;;;;;;3.03;2.53;;;17.10;59.70;;;;;;5053529;28;20319;-93
2022/04/26 07:30:46;;;;;;;4.77;2.80;;;17.10;59.80;;;;;;5052218;28;20716;-93
2022/04/26 07:35:56;;;;;;;3.53;2.60;;;17.10;60.00;;;;;;5070206;28;20247;-93
2022/04/26 07:38:22;;;;;;;4.50;2.80;;;17.10;60.10;;;;;;5052733;28;20173;-93
2022/04/26 07:40:48;;;;;;;2.93;2.33;;;17.10;60.00;;;;;;5053263;28;20239;-93
2022/04/26 07:43:14;;;;;;;3.57;2.83;;;17.10;59.90;;;;;;5052191;28;20614;-93
2022/04/26 07:45:41;;;;;;;3.37;2.83;;;17.10;59.90;;;;;;5052139;28;20192;-93
2022/04/26 07:48:08;;;;;;;2.93;2.63;;;17.10;60.10;;;;;;5053007;28;20417;-93
2022/04/26 07:50:36;;;;;;;4.60;2.60;;;17.10;60.10;;;;;;5051545;28;20201;-93
2022/04/26 08:06:44;;;;;;;5.10;3.10;;;17.10;60.40;;;;;;5070209;28;20311;-93
2022/04/26 08:09:09;;;;;;;4.20;3.73;;;17.10;60.20;;;;;;5050841;28;20220;-94
2022/04/26 08:11:35;;;;;;;4.57;3.47;;;17.10;60.30;;;;;;5054153;28;20205;-93
2022/04/26 08:14:01;;;;;;;5.47;4.20;;;17.10;60.40;;;;;;5051956;28;20171;-93
2022/04/26 08:16:27;;;;;;;6.23;4.10;;;17.10;60.30;;;;;;5052184;28;20180;-93
2022/04/26 08:18:52;;;;;;;5.63;4.17;;;17.10;60.40;;;;;;5051938;28;20170;-93
2022/04/26 08:21:18;;;;;;;9.77;4.30;;;17.20;60.40;;;;;;5053078;28;20453;-93
2022/04/26 08:29:16;;;;;;;6.90;4.83;;;17.10;60.90;;;;;;5070539;28;20231;-91
2022/04/26 08:31:42;;;;;;;5.63;4.40;;;17.10;60.90;;;;;;5050897;28;20198;-92
2022/04/26 08:34:08;;;;;;;8.20;5.13;;;17.20;60.90;;;;;;5051846;28;20197;-92
2022/04/26 08:36:34;;;;;;;7.47;5.30;;;17.10;60.70;;;;;;5049943;28;20271;-91
2022/04/26 08:39:01;;;;;;;5.73;4.67;;;17.10;61.00;;;;;;5049800;28;20184;-91
2022/04/26 08:44:48;;;;;;;6.07;5.17;;;17.20;61.30;;;;;;5067258;28;20181;-91
2022/04/26 08:52:51;;;;;;;6.10;5.50;;;17.30;61.30;;;;;;5070269;28;20338;-92
2022/04/26 09:35:29;;;;;;;7.73;6.00;;;17.70;60.90;;;;;;5067219;28;20241;-94
2022/04/26 09:37:55;;;;;;;6.30;5.63;;;17.70;61.00;;;;;;5051567;28;20280;-92
2022/04/26 09:40:21;;;;;;;7.70;5.90;;;17.70;61.00;;;;;;5051599;28;20270;-92
2022/04/26 09:42:48;;;;;;;6.87;5.87;;;17.70;61.00;;;;;;5051110;28;20273;-92
2022/04/26 09:45:15;;;;;;;7.03;6.10;;;17.80;60.80;;;;;;5050415;28;20173;-92
2022/04/26 09:47:42;;;;;;;6.90;5.73;;;17.80;60.90;;;;;;5049221;28;20620;-92
2022/04/26 09:50:15;;;;;;;7.13;5.60;;;17.80;60.80;;;;;;5051057;28;20173;-92
2022/04/26 09:52:42;;;;;;;7.47;5.60;;;17.80;60.80;;;;;;5049698;28;20181;-92
2022/04/26 09:55:10;;;;;;;6.80;5.77;;;17.90;60.60;;;;;;5048917;28;20187;-92
2022/04/26 09:57:37;;;;;;;7.97;6.27;;;17.90;60.30;;;;;;5049166;28;20346;-92
2022/04/26 10:00:06;;;;;;;6.77;5.73;;;17.90;60.40;;;;;;5066373;28;20172;-92
2022/04/26 10:02:32;;;;;;;7.20;5.73;;;17.90;60.30;;;;;;5066438;28;20200;-92
2022/04/26 10:05:06;;;;;;;5.87;5.17;;;17.90;60.80;;;;;;5050109;28;20172;-92
2022/04/26 10:07:37;;;;;;;7.33;5.70;;;18.00;59.40;;;;;;5049633;28;20223;-92
2022/04/26 10:10:06;;;;;;;7.27;5.97;;;18.10;59.20;;;;;;5050661;28;20273;-92
2022/04/26 10:12:32;;;;;;;6.20;5.60;;;18.20;59.00;;;;;;5049479;28;20234;-92
2022/04/26 10:15:02;;;;;;;6.57;5.87;;;18.20;59.20;;;;;;5053046;28;20171;-92
2022/04/26 10:17:32;;;;;;;8.70;6.23;;;18.30;58.90;;;;;;5053059;28;20195;-92
2022/04/26 10:20:01;;;;;;;6.40;5.80;;;18.30;58.80;;;;;;5053947;28;20176;-91
2022/04/26 10:22:56;;;;;;;6.90;5.77;;;18.30;58.70;;;;;;5054478;28;20580;-92
2022/04/26 10:25:23;;;;;;;7.30;6.20;;;18.30;59.20;;;;;;5051317;28;20259;-92
2022/04/26 10:28:17;;;;;;;8.30;6.37;;;18.30;59.40;;;;;;5052845;28;20167;-93
2022/04/26 10:30:49;;;;;;;6.37;5.77;;;18.30;59.10;;;;;;5053378;28;20170;-92
2022/04/26 10:33:41;;;;;;;6.70;6.00;;;18.40;59.30;;;;;;5051979;28;20171;-92
2022/04/26 10:36:35;;;;;;;6.37;5.70;;;18.40;59.10;;;;;;5050829;28;20553;-92
2022/04/26 10:39:07;;;;;;;7.70;5.80;;;18.40;59.20;;;;;;5069334;28;20171;-92
2022/04/26 10:41:37;;;;;;;6.30;5.70;;;18.40;58.80;;;;;;5051344;28;20174;-92
2022/04/26 10:44:15;;;;;;;6.27;5.67;;;18.50;59.00;;;;;;5053604;28;20165;-93
2022/04/26 10:46:42;;;;;;;6.03;5.30;;;18.50;59.10;;;;;;5053723;28;20179;-93
2022/04/26 10:49:23;;;;;;;6.10;5.50;;;18.50;58.70;;;;;;5055298;28;20180;-93
2022/04/26 10:51:51;;;;;;;6.13;5.53;;;18.50;58.60;;;;;;5056856;28;20175;-95
2022/04/26 10:54:51;;;;;;;7.13;5.60;;;18.60;58.70;;;;;;5055918;28;20599;-94
2022/04/26 10:57:21;;;;;;;6.60;5.40;;;18.60;58.60;;;;;;5056241;28;20199;-95
2022/04/26 10:59:56;;;;;;;6.10;5.50;;;18.60;58.40;;;;;;5056490;28;20176;-93
2022/04/26 11:02:25;;;;;;;8.00;6.00;;;18.60;58.40;;;;;;5053184;28;20591;-94
2022/04/26 11:05:23;;;;;;;6.53;5.40;;;18.70;58.30;;;;;;5053809;28;20482;-94
2022/04/26 11:07:49;;;;;;;6.77;6.10;;;18.70;58.20;;;;;;5031759;28;20208;-93
2022/04/26 11:10:23;;;;;;;6.13;5.30;;;18.80;58.50;;;;;;5051290;28;20217;-93
2022/04/26 11:12:50;;;;;;;7.87;5.70;;;18.80;58.50;;;;;;5053306;28;20167;-93
2022/04/26 11:15:21;;;;;;;6.20;5.60;;;18.70;58.10;;;;;;5053295;28;20183;-93
2022/04/26 11:17:50;;;;;;;6.43;5.60;;;18.80;58.30;;;;;;5051339;28;20175;-94
2022/04/26 11:20:18;;;;;;;5.57;5.07;;;18.80;58.30;;;;;;5050875;28;20179;-94
2022/04/26 11:22:56;;;;;;;6.10;5.47;;;18.80;58.00;;;;;;5051807;28;20207;-94
2022/04/26 11:28:17;;;;;;;5.13;4.63;;;18.90;58.10;;;;;;5069043;28;20197;-93
2022/04/26 11:30:48;;;;;;;6.00;5.40;;;18.90;58.00;;;;;;5051594;28;20173;-94
2022/04/26 11:33:25;;;;;;;5.87;5.27;;;18.90;57.90;;;;;;5050864;28;20208;-94
2022/04/26 11:35:55;;;;;;;6.50;5.47;;;18.90;58.00;;;;;;5051021;28;20219;-93
2022/04/26 11:38:22;;;;;;;5.90;5.30;;;19.00;57.90;;;;;;5052622;28;20240;-94
2022/04/26 11:40:51;;;;;;;5.80;5.30;;;19.00;58.20;;;;;;5052727;28;20171;-93
2022/04/26 11:43:19;;;;;;;6.13;5.50;;;19.00;58.30;;;;;;5054446;28;20268;-94
2022/04/26 11:45:49;;;;;;;5.60;5.10;;;19.00;58.30;;;;;;5055001;28;20168;-94
2022/04/26 11:48:17;;;;;;;6.23;5.63;;;19.00;58.30;;;;;;5053722;28;20566;-94
2022/04/26 11:50:45;;;;;;;5.63;4.87;;;19.10;58.30;;;;;;5052698;28;20181;-93
2022/04/26 11:53:13;;;;;;;5.20;4.70;;;19.10;58.20;;;;;;5053797;28;20529;-93
2022/04/26 11:55:46;;;;;;;5.60;5.00;;;19.10;58.00;;;;;;5051344;28;20214;-94
2022/04/26 11:58:22;;;;;;;5.70;5.20;;;19.10;58.00;;;;;;5057245;28;20175;-93
2022/04/26 12:00:53;;;;;;;5.20;4.70;;;19.10;58.10;;;;;;5050505;28;20294;-93
2022/04/26 12:03:26;;;;;;;5.57;5.07;;;19.20;58.20;;;;;;5053810;28;20262;-94
2022/04/26 12:06:04;;;;;;;5.30;4.80;;;19.10;58.10;;;;;;5052691;28;20167;-93
2022/04/26 12:08:35;;;;;;;5.57;4.47;;;19.20;58.00;;;;;;5051907;28;20170;-94
2022/04/26 12:11:18;;;;;;;4.97;4.47;;;19.20;58.00;;;;;;5054602;28;20168;-93
2022/04/26 12:13:44;;;;;;;5.63;4.97;;;19.20;58.00;;;;;;5053944;28;20167;-94
2022/04/26 12:16:21;;;;;;;7.10;4.50;;;19.20;57.80;;;;;;5050786;28;20171;-94
2022/04/26 12:19:03;;;;;;;5.43;4.93;;;19.20;57.90;;;;;;5052936;28;20175;-93
2022/04/26 12:21:51;;;;;;;4.97;4.47;;;19.30;57.90;;;;;;5053728;28;20222;-93
2022/04/26 12:24:23;;;;;;;4.57;4.17;;;19.30;58.00;;;;;;5051153;28;20436;-94
2022/04/26 12:26:54;;;;;;;4.50;4.10;;;19.20;58.00;;;;;;5050969;28;20199;-93
2022/04/26 12:29:21;;;;;;;4.80;4.33;;;19.30;58.00;;;;;;5054750;28;20178;-93
2022/04/26 12:31:48;;;;;;;4.37;3.97;;;19.30;57.90;;;;;;5056425;28;20269;-94
2022/04/26 12:34:17;;;;;;;5.07;4.40;;;19.30;57.90;;;;;;5053353;28;20228;-94
2022/04/26 12:36:49;;;;;;;4.53;3.90;;;19.30;58.10;;;;;;5052921;28;20182;-93
2022/04/26 12:39:15;;;;;;;4.47;4.07;;;19.30;58.10;;;;;;5052837;28;20171;-94
2022/04/26 12:41:53;;;;;;;4.87;4.20;;;19.40;58.10;;;;;;5053138;28;20423;-94
2022/04/26 12:44:19;;;;;;;4.80;4.40;;;19.40;57.80;;;;;;5053344;28;20549;-93
2022/04/26 12:50:27;;;;;;;4.70;4.20;;;19.40;57.80;;;;;;5053589;28;20171;-94
2022/04/26 12:52:53;;;;;;;5.07;4.57;;;19.40;58.30;;;;;;5067149;28;20181;-92
2022/04/26 12:55:29;;;;;;;5.07;4.57;;;19.40;58.20;;;;;;5067891;28;20254;-93
2022/04/26 12:57:56;;;;;;;4.93;4.40;;;19.40;58.30;;;;;;5050648;28;20208;-92
2022/04/26 13:00:24;;;;;;;5.20;4.60;;;19.40;58.50;;;;;;5050683;28;20568;-92
2022/04/26 13:02:52;;;;;;;4.83;4.33;;;19.40;58.50;;;;;;5048690;28;20355;-92
2022/04/26 13:05:19;;;;;;;4.30;3.90;;;19.50;58.50;;;;;;5050205;28;20225;-91
2022/04/26 13:07:48;;;;;;;4.73;4.20;;;19.50;58.40;;;;;;5050166;28;20188;-92
2022/04/26 13:10:18;;;;;;;4.53;4.13;;;19.40;58.30;;;;;;5048695;28;20240;-92
2022/04/26 13:12:43;;;;;;;4.97;4.50;;;19.50;58.30;;;;;;5049209;28;20557;-92
2022/04/26 13:15:10;;;;;;;6.13;4.70;;;19.50;58.40;;;;;;5065827;28;20209;-92
2022/04/26 13:17:39;;;;;;;6.47;4.87;;;19.40;58.40;;;;;;5048529;28;20178;-92
2022/04/26 13:20:06;;;;;;;6.53;4.70;;;19.40;58.40;;;;;;5050435;28;20175;-92
2022/04/26 13:22:36;;;;;;;5.23;4.60;;;19.40;58.30;;;;;;5050250;28;20225;-92
2022/04/26 13:25:07;;;;;;;4.93;4.50;;;19.40;58.30;;;;;;5068066;28;20160;-92
2022/04/26 13:27:34;;;;;;;4.77;4.37;;;19.40;58.30;;;;;;5049373;28;20185;-92
2022/04/26 13:30:00;;;;;;;5.60;4.47;;;19.40;58.30;;;;;;5049812;28;20191;-93
2022/04/26 13:32:26;;;;;;;5.23;4.33;;;19.40;58.40;;;;;;5049258;28;20225;-92
2022/04/26 13:34:52;;;;;;;6.13;4.50;;;19.40;58.60;;;;;;5049769;28;20180;-92
2022/04/26 13:37:19;;;;;;;4.73;4.23;;;19.30;58.60;;;;;;5050530;28;20174;-91
2022/04/26 13:39:45;;;;;;;5.03;4.40;;;19.30;58.70;;;;;;5048662;28;20414;-91
2022/04/26 13:42:12;;;;;;;5.00;4.50;;;19.30;58.80;;;;;;5048815;28;20686;-92
2022/04/26 13:44:40;;;;;;;5.17;4.67;;;19.30;58.80;;;;;;5048702;28;20170;-92
2022/04/26 13:47:06;;;;;;;5.23;4.53;;;19.30;58.70;;;;;;5049261;28;20639;-91
2022/04/26 13:49:36;;;;;;;4.80;4.30;;;19.30;58.80;;;;;;5050542;28;20167;-92
2022/04/26 13:52:05;;;;;;;4.03;3.73;;;19.30;58.90;;;;;;5053112;28;20282;-91
2022/04/26 13:54:31;;;;;;;4.77;4.27;;;19.30;58.80;;;;;;5051730;28;20182;-92
2022/04/26 13:56:57;;;;;;;4.63;3.90;;;19.30;58.90;;;;;;5053039;28;20172;-92
2022/04/26 13:59:24;;;;;;;4.17;3.73;;;19.30;59.00;;;;;;5052853;28;20416;-92
2022/04/26 14:01:50;;;;;;;4.07;3.60;;;19.20;59.10;;;;;;5053756;28;20178;-93
2022/04/26 14:04:16;;;;;;;4.37;3.87;;;19.30;59.30;;;;;;5052975;28;20622;-94
2022/04/26 14:06:42;;;;;;;3.83;3.53;;;19.30;59.30;;;;;;5053214;28;20259;-93
2022/04/26 14:09:08;;;;;;;4.80;3.50;;;19.30;59.40;;;;;;5053093;28;20373;-93
2022/04/26 14:11:34;;;;;;;3.90;3.50;;;19.20;59.40;;;;;;5054431;28;20411;-93
2022/04/26 14:22:12;;;;;;;4.20;3.20;;;19.20;59.70;;;;;;5071310;28;20207;-93
2022/04/26 14:24:38;;;;;;;3.73;3.43;;;19.30;59.70;;;;;;5053607;28;20172;-93
2022/04/26 14:27:05;;;;;;;3.37;3.07;;;19.20;59.60;;;;;;5055675;28;20592;-93
2022/04/26 14:29:30;;;;;;;3.43;3.10;;;19.20;59.60;;;;;;5054852;28;20171;-93
2022/04/26 14:31:56;;;;;;;5.13;3.23;;;19.30;59.80;;;;;;5054627;28;20193;-93
2022/04/26 14:34:22;;;;;;;5.57;3.00;;;19.30;59.80;;;;;;5054271;28;20486;-93
2022/04/26 14:36:48;;;;;;;5.00;3.40;;;19.30;59.90;;;;;;5055574;28;20190;-93
2022/04/26 14:39:15;;;;;;;3.90;3.30;;;19.30;59.80;;;;;;5060688;28;20177;-93
2022/04/26 14:41:45;;;;;;;4.53;3.17;;;19.30;59.80;;;;;;5068148;28;20221;-94
2022/04/26 14:44:11;;;;;;;5.23;3.40;;;19.30;60.00;;;;;;5068328;28;20231;-93
2022/04/26 14:46:37;;;;;;;5.83;3.27;;;19.30;60.00;;;;;;5067422;28;20508;-93
2022/04/26 14:49:03;;;;;;;5.90;3.10;;;19.30;60.10;;;;;;5066971;28;20243;-92
2022/04/26 14:51:31;;;;;;;4.47;3.30;;;19.30;60.10;;;;;;5066352;28;20175;-92
2022/04/26 14:53:56;;;;;;;5.20;3.10;;;19.30;60.20;;;;;;5057188;28;20510;-93
2022/04/26 14:56:23;;;;;;;5.03;3.30;;;19.30;60.30;;;;;;5054795;28;20224;-93
2022/04/26 14:58:49;;;;;;;4.10;3.13;;;19.30;60.40;;;;;;5066333;28;20174;-93
2022/04/26 15:01:16;;;;;;;4.80;3.23;;;19.30;60.60;;;;;;5062311;28;20174;-93
2022/04/26 15:03:44;;;;;;;4.27;3.20;;;19.30;60.80;;;;;;5061931;28;20244;-93
2022/04/26 15:06:11;;;;;;;5.23;3.60;;;19.30;61.10;;;;;;5066686;28;20182;-93
2022/04/26 15:11:29;;;;;;;5.50;3.67;;;19.30;61.60;;;;;;5046119;28;20209;-92
2022/04/26 15:16:39;;;;;;;5.97;3.60;;;19.30;62.40;;;;;;5069154;28;20262;-92
2022/04/26 15:19:10;;;;;;;5.83;3.70;;;19.20;62.80;;;;;;5052836;28;20178;-92
2022/04/26 15:21:42;;;;;;;7.80;3.60;;;19.20;63.50;;;;;;5052701;28;20169;-91
2022/04/26 15:24:07;;;;;;;4.60;3.90;;;19.20;63.20;;;;;;5053403;28;20203;-92
2022/04/26 15:26:34;;;;;;;5.00;3.50;;;19.20;62.90;;;;;;5052569;28;20206;-91
2022/04/26 15:29:00;;;;;;;4.00;3.50;;;19.20;62.90;;;;;;5052028;28;20173;-94
2022/04/26 15:31:26;;;;;;;5.37;3.57;;;19.20;63.00;;;;;;5052757;28;20173;-92
2022/04/26 15:33:52;;;;;;;3.80;3.10;;;19.10;62.60;;;;;;5053754;28;20180;-91
2022/04/26 15:36:19;;;;;;;6.33;3.37;;;19.10;62.50;;;;;;5054934;28;20170;-92
2022/04/26 15:38:45;;;;;;;6.57;3.30;;;19.10;62.30;;;;;;5053712;28;20218;-94
2022/04/26 15:41:13;;;;;;;6.70;3.43;;;19.10;62.20;;;;;;5052140;28;20165;-93
2022/04/26 15:43:39;;;;;;;3.70;3.10;;;19.00;62.00;;;;;;5054096;28;20206;-93
2022/04/26 15:46:06;;;;;;;5.23;3.20;;;19.10;61.90;;;;;;5055360;28;20176;-94
2022/04/26 15:48:37;;;;;;;3.97;3.07;;;19.00;61.80;;;;;;5056234;28;20231;-92
2022/04/26 15:51:04;;;;;;;3.50;3.20;;;19.00;61.70;;;;;;5054647;28;20178;-92
2022/04/26 15:53:29;;;;;;;3.63;2.90;;;19.00;61.60;;;;;;5056067;28;20169;-93
2022/04/26 15:55:55;;;;;;;5.70;3.40;;;19.00;61.60;;;;;;5057397;28;20225;-93
2022/04/26 15:58:21;;;;;;;4.37;3.00;;;19.00;61.60;;;;;;5053302;28;20552;-92
2022/04/26 16:00:47;;;;;;;3.13;2.83;;;19.00;61.80;;;;;;5051810;28;20503;-92
2022/04/26 16:03:13;;;;;;;3.63;3.33;;;18.90;61.70;;;;;;5055591;28;20303;-94
2022/04/26 16:05:41;;;;;;;3.30;3.00;;;18.90;61.70;;;;;;5053009;28;20167;-92
2022/04/26 16:08:07;;;;;;;3.57;2.97;;;18.90;61.90;;;;;;5053383;28;20674;-93
2022/04/26 16:21:32;;;;;;;3.00;2.53;;;18.90;62.10;;;;;;5048449;28;20178;-91
2022/04/26 16:23:59;;;;;;;3.00;2.70;;;18.90;62.20;;;;;;5052039;28;20700;-91
2022/04/26 16:26:27;;;;;;;3.90;2.77;;;18.90;62.30;;;;;;5051636;28;20176;-91
2022/04/26 16:28:53;;;;;;;6.07;2.87;;;18.90;62.40;;;;;;5051064;28;20179;-91
2022/04/26 16:31:29;;;;;;;4.23;2.83;;;18.90;62.80;;;;;;5050553;28;20194;-91
2022/04/26 16:33:56;;;;;;;4.90;2.97;;;18.80;62.60;;;;;;5067994;28;20187;-92
2022/04/26 16:36:22;;;;;;;4.40;2.87;;;18.80;62.90;;;;;;5050407;28;20168;-91
2022/04/26 16:38:49;;;;;;;4.30;2.47;;;18.80;62.90;;;;;;5050854;28;20551;-91
2022/04/26 16:41:14;;;;;;;2.90;2.53;;;18.80;63.00;;;;;;5051268;28;20183;-91
2022/04/26 16:43:40;;;;;;;5.40;3.10;;;18.80;63.20;;;;;;5070105;28;20234;-91
2022/04/26 16:46:06;;;;;;;4.07;2.87;;;18.80;63.40;;;;;;5050888;28;20347;-91
2022/04/26 16:48:35;;;;;;;4.60;2.60;;;18.80;63.40;;;;;;5067951;28;20255;-91
2022/04/26 16:51:01;;;;;;;4.00;2.97;;;18.80;63.50;;;;;;5052371;28;20543;-91
2022/04/26 16:54:20;;;;;;;4.40;3.10;;;18.80;63.70;;;;;;5054160;28;20174;-90
2022/04/26 16:57:08;;;;;;;3.17;2.67;;;18.80;63.90;;;;;;5054426;28;20583;-91
2022/04/26 16:59:58;;;;;;;3.97;2.70;;;18.80;63.80;;;;;;5053605;28;20167;-91
2022/04/26 17:02:26;;;;;;;4.00;3.30;;;18.80;64.00;;;;;;5050537;28;20216;-91
2022/04/26 17:04:53;;;;;;;3.13;2.70;;;18.80;64.40;;;;;;5049814;28;20181;-91
2022/04/26 17:07:19;;;;;;;5.83;2.67;;;18.80;64.10;;;;;;5034647;28;20466;-90
2022/04/26 17:09:46;;;;;;;4.57;2.70;;;18.80;64.00;;;;;;5050663;28;20425;-91
2022/04/26 17:12:14;;;;;;;4.07;3.00;;;18.80;64.00;;;;;;5050106;28;20413;-90
2022/04/26 17:14:42;;;;;;;3.57;2.50;;;18.80;64.40;;;;;;5069242;28;20172;-90
2022/04/26 17:17:08;;;;;;;3.87;2.60;;;18.80;64.60;;;;;;5052470;28;20231;-92
2022/04/26 17:19:34;;;;;;;4.13;2.63;;;18.80;65.00;;;;;;5052246;28;20577;-90
2022/04/26 17:22:01;;;;;;;3.50;2.60;;;18.80;65.10;;;;;;5052321;28;20167;-90
2022/04/26 17:27:12;;;;;;;3.20;2.90;;;18.80;65.20;;;;;;5075436;28;20427;-91
2022/04/26 17:29:38;;;;;;;3.03;2.63;;;18.80;65.20;;;;;;5056311;28;20168;-90
2022/04/26 17:32:04;;;;;;;3.77;2.53;;;18.80;65.00;;;;;;5056236;28;20253;-90
2022/04/26 17:34:30;;;;;;;3.27;2.60;;;18.80;65.40;;;;;;5056771;28;20256;-90
2022/04/26 17:36:56;;;;;;;3.50;2.83;;;18.80;65.50;;;;;;5074595;28;20183;-90
2022/04/26 17:39:21;;;;;;;2.93;2.67;;;18.70;65.70;;;;;;5057024;28;20175;-90
2022/04/26 17:41:49;;;;;;;4.37;2.70;;;18.80;65.80;;;;;;5056800;28;20197;-90
2022/04/26 17:44:16;;;;;;;3.13;2.83;;;18.80;65.90;;;;;;5056081;28;20307;-91
2022/04/26 17:46:42;;;;;;;2.80;2.43;;;18.70;66.00;;;;;;5055269;28;20175;-91
2022/04/26 17:49:08;;;;;;;5.27;2.83;;;18.80;66.60;;;;;;5056293;28;20597;-90
2022/04/26 17:51:34;;;;;;;3.43;2.80;;;18.70;66.10;;;;;;5057410;28;20267;-91
2022/04/26 17:56:44;;;;;;;3.80;2.70;;;18.70;66.40;;;;;;5074144;28;20247;-93
2022/04/26 17:59:10;;;;;;;5.27;2.70;;;18.70;66.40;;;;;;5057059;28;20579;-93
2022/04/26 18:01:36;;;;;;;5.57;2.60;;;18.70;66.10;;;;;;5056158;28;20171;-92
2022/04/26 18:04:03;;;;;;;15.33;2.87;;;18.70;66.70;;;;;;5073444;28;20280;-93
2022/04/26 18:06:29;;;;;;;5.10;2.63;;;18.70;66.40;;;;;;5055509;28;20205;-92
2022/04/26 18:08:55;;;;;;;3.70;2.97;;;18.70;66.30;;;;;;5056655;28;20308;-93
2022/04/26 18:11:21;;;;;;;4.33;2.80;;;18.70;66.50;;;;;;5056284;28;20512;-93
2022/04/26 18:13:49;;;;;;;4.53;2.80;;;18.70;66.50;;;;;;5056595;28;20176;-92
2022/04/26 18:16:15;;;;;;;3.37;3.07;;;18.70;66.60;;;;;;5056735;28;20207;-92
2022/04/26 18:18:41;;;;;;;3.53;2.70;;;18.70;66.60;;;;;;5056032;28;20218;-93